Time;durP1;ratioP1;P1;durP2;ratioP2;P2;SDS_P1;SDS_P2;PMS_P1;PMS_P2;Temp;Humidity;BMP_temperature;BMP_pressure;BME280_temperature;BME280_humidity;BME280_pressure;Samples;Min_cycle;Max_cycle;Signal;HPM_P1;HPM_P2
2024/01/05 00:00:09;;;;;;;43.90;26.60;;;;;;;1.20;100.00;98549.73;87098;271;137014;-69
2024/01/05 00:02:11;;;;;;;39.10;23.90;;;;;;;1.24;100.00;98555.52;87452;273;25072;-69
2024/01/05 00:04:15;;;;;;;40.30;24.50;;;;;;;1.27;100.00;98559.12;87251;269;137050;-70
2024/01/05 00:06:18;;;;;;;40.80;24.90;;;;;;;1.25;100.00;98562.48;87189;272;24260;-68
2024/01/05 00:08:20;;;;;;;45.40;24.80;;;;;;;1.22;100.00;98563.35;87233;270;137252;-70
2024/01/05 00:10:23;;;;;;;40.00;25.20;;;;;;;1.19;100.00;98566.58;87163;276;23716;-68
2024/01/05 00:12:25;;;;;;;46.00;26.40;;;;;;;1.18;100.00;98564.59;87208;277;138184;-70
2024/01/05 00:14:27;;;;;;;40.40;23.30;;;;;;;1.18;100.00;98570.61;87299;270;25187;-69
2024/01/05 00:16:28;;;;;;;46.00;26.40;;;;;;;1.22;100.00;98570.96;87239;269;137164;-70
2024/01/05 00:18:30;;;;;;;40.00;24.80;;;;;;;1.24;100.00;98575.54;87331;273;25241;-70
2024/01/05 00:20:32;;;;;;;40.50;24.00;;;;;;;1.25;100.00;98574.30;87237;268;137122;-69
2024/01/05 00:22:34;;;;;;;35.90;23.30;;;;;;;1.28;100.00;98574.11;87357;271;23997;-69
2024/01/05 00:24:37;;;;;;;40.50;24.60;;;;;;;1.31;100.00;98572.89;87243;269;137725;-71
2024/01/05 00:26:42;;;;;;;37.70;25.90;;;;;;;1.33;100.00;98572.48;87205;268;22642;-69
2024/01/05 00:28:45;;;;;;;46.00;26.70;;;;;;;1.37;100.00;98576.56;87264;270;136959;-70
2024/01/05 00:30:47;;;;;;;36.80;23.30;;;;;;;1.37;100.00;98576.40;87339;268;25357;-67
2024/01/05 00:32:49;;;;;;;34.70;21.90;;;;;;;1.32;100.00;98572.90;87169;271;136895;-68
2024/01/05 00:34:51;;;;;;;40.00;24.00;;;;;;;1.24;100.00;98578.20;87365;274;22639;-72
2024/01/05 00:36:55;;;;;;;36.70;22.40;;;;;;;1.17;100.00;98579.39;87278;269;136864;-70
2024/01/05 00:38:57;;;;;;;41.70;24.80;;;;;;;1.13;100.00;98574.34;87352;262;23863;-71
2024/01/05 00:40:59;;;;;;;39.90;24.20;;;;;;;1.11;100.00;98577.24;87160;276;136908;-71
2024/01/05 00:43:01;;;;;;;38.00;23.90;;;;;;;1.13;100.00;98576.64;87381;275;25180;-71
2024/01/05 00:45:04;;;;;;;37.70;24.30;;;;;;;1.16;100.00;98579.59;87265;273;136871;-71
2024/01/05 00:47:07;;;;;;;42.00;27.40;;;;;;;1.19;100.00;98578.73;87456;273;25223;-70
2024/01/05 00:49:08;;;;;;;39.40;24.40;;;;;;;1.22;100.00;98584.41;87146;267;136737;-72
2024/01/05 00:51:10;;;;;;;40.30;24.00;;;;;;;1.24;100.00;98587.24;87413;271;22573;-71
2024/01/05 00:53:13;;;;;;;37.80;25.80;;;;;;;1.27;100.00;98594.63;87239;270;137186;-71
2024/01/05 00:55:15;;;;;;;37.00;23.90;;;;;;;1.30;100.00;98595.56;87329;269;23785;-70
2024/01/05 00:57:16;;;;;;;45.70;24.90;;;;;;;1.35;100.00;98597.11;87175;272;137197;-70
2024/01/05 00:59:20;;;;;;;37.70;24.60;;;;;;;1.37;100.00;98598.29;87337;279;22576;-72
2024/01/05 01:01:21;;;;;;;39.50;24.20;;;;;;;1.39;100.00;98601.98;87185;277;137359;-72
2024/01/05 01:03:23;;;;;;;43.80;27.40;;;;;;;1.38;100.00;98603.27;87369;269;22555;-71
2024/01/05 01:05:28;;;;;;;54.00;31.10;;;;;;;1.40;100.00;98606.41;87331;273;137130;-69
2024/01/05 01:07:29;;;;;;;46.20;30.50;;;;;;;1.41;100.00;98604.49;87437;271;25326;-71
2024/01/05 01:09:31;;;;;;;58.60;35.50;;;;;;;1.43;100.00;98603.40;87334;269;138269;-69
2024/01/05 01:11:33;;;;;;;54.30;33.70;;;;;;;1.45;100.00;98601.42;87381;270;25108;-70
2024/01/05 01:13:35;;;;;;;55.90;34.80;;;;;;;1.46;100.00;98600.80;87288;271;137101;-71
2024/01/05 01:15:37;;;;;;;57.00;33.30;;;;;;;1.45;100.00;98598.80;87321;271;22638;-69
2024/01/05 01:17:41;;;;;;;58.10;35.70;;;;;;;1.43;100.00;98603.98;87259;264;137092;-68
2024/01/05 01:19:43;;;;;;;59.20;35.10;;;;;;;1.41;100.00;98598.16;87358;273;22568;-71
2024/01/05 01:21:45;;;;;;;56.00;32.70;;;;;;;1.42;100.00;98602.44;87156;269;137202;-70
2024/01/05 01:23:46;;;;;;;59.80;34.70;;;;;;;1.44;100.00;98602.63;87263;269;22587;-70
2024/01/05 01:25:48;;;;;;;47.10;29.30;;;;;;;1.46;100.00;98604.17;87030;271;137934;-71
2024/01/05 01:27:50;;;;;;;49.20;30.10;;;;;;;1.49;100.00;98603.61;87339;271;25232;-70
2024/01/05 01:29:52;;;;;;;51.40;30.50;;;;;;;1.51;100.00;98606.00;87137;269;137101;-68
2024/01/05 01:31:56;;;;;;;53.40;32.30;;;;;;;1.51;100.00;98609.90;87280;269;22576;-72
2024/01/05 01:33:58;;;;;;;58.70;34.50;;;;;;;1.51;100.00;98607.73;87186;270;138301;-71
2024/01/05 01:36:00;;;;;;;58.70;33.90;;;;;;;1.51;100.00;98610.59;87321;271;25182;-71
2024/01/05 01:38:03;;;;;;;57.40;34.20;;;;;;;1.52;100.00;98610.41;87306;266;22648;-72
2024/01/05 01:40:06;;;;;;;56.80;35.40;;;;;;;1.53;100.00;98611.16;87229;270;137402;-71
2024/01/05 01:42:08;;;;;;;57.60;33.00;;;;;;;1.52;100.00;98606.54;87280;267;22613;-74
2024/01/05 01:44:10;;;;;;;56.50;32.20;;;;;;;1.54;100.00;98602.86;87410;273;138243;-73
2024/01/05 01:46:13;;;;;;;54.00;32.80;;;;;;;1.55;100.00;98601.70;87114;279;22564;-66
2024/01/05 01:48:17;;;;;;;52.10;30.40;;;;;;;1.55;100.00;98604.69;87240;270;137295;-69
2024/01/05 01:50:19;;;;;;;58.80;31.60;;;;;;;1.45;100.00;98603.36;87363;268;22599;-73
2024/01/05 01:52:22;;;;;;;50.40;30.10;;;;;;;1.38;100.00;98606.71;87273;273;137348;-73
2024/01/05 01:54:27;;;;;;;59.40;32.10;;;;;;;1.38;100.00;98607.80;87367;270;22752;-67
2024/01/05 01:56:32;;;;;;;49.60;30.60;;;;;;;1.38;100.00;98601.90;87135;270;137427;-71
2024/01/05 01:58:34;;;;;;;48.20;27.50;;;;;;;1.40;100.00;98601.16;87262;267;23736;-68
2024/01/05 02:00:36;;;;;;;63.70;33.50;;;;;;;1.43;100.00;98604.95;87000;276;137781;-70
2024/01/05 02:02:40;;;;;;;54.40;28.50;;;;;;;1.44;100.00;98606.42;87343;270;22559;-72
2024/01/05 02:04:42;;;;;;;51.90;32.00;;;;;;;1.45;100.00;98611.05;87204;277;137294;-70
2024/01/05 02:06:45;;;;;;;58.40;34.20;;;;;;;1.47;100.00;98614.38;87329;270;22552;-74
2024/01/05 02:08:48;;;;;;;60.10;33.20;;;;;;;1.45;100.00;98616.27;87402;270;137285;-69
2024/01/05 02:10:50;;;;;;;57.40;33.50;;;;;;;1.44;100.00;98619.95;87349;269;22575;-70
2024/01/05 02:12:52;;;;;;;57.30;32.10;;;;;;;1.40;100.00;98619.79;87210;273;138462;-72
2024/01/05 02:14:54;;;;;;;52.90;29.60;;;;;;;1.38;100.00;98616.21;87364;270;22571;-71
2024/01/05 02:16:56;;;;;;;52.50;29.90;;;;;;;1.39;100.00;98614.23;87242;266;137146;-69
2024/01/05 02:18:57;;;;;;;51.40;30.60;;;;;;;1.40;100.00;98614.77;87413;278;22632;-72
2024/01/05 02:21:01;;;;;;;50.00;29.20;;;;;;;1.41;100.00;98616.54;87220;278;137176;-67
2024/01/05 02:23:08;;;;;;;53.80;31.10;;;;;;;1.43;100.00;98618.31;87364;270;25121;-71
2024/01/05 02:25:10;;;;;;;52.00;28.60;;;;;;;1.44;100.00;98614.38;87301;269;137127;-69
2024/01/05 02:27:12;;;;;;;48.70;26.60;;;;;;;1.47;100.00;98617.33;87300;266;25277;-69
2024/01/05 02:29:21;;;;;;;52.70;26.80;;;;;;;1.43;100.00;98621.56;87275;277;137747;-70
2024/01/05 02:31:24;;;;;;;52.40;29.70;;;;;;;1.43;100.00;98628.62;87341;274;22573;-70
2024/01/05 02:33:26;;;;;;;53.20;32.90;;;;;;;1.42;100.00;98634.45;87254;274;137970;-71
2024/01/05 02:35:30;;;;;;;58.80;34.10;;;;;;;1.42;100.00;98633.67;87378;270;22578;-71
2024/01/05 02:37:32;;;;;;;50.00;29.10;;;;;;;1.44;100.00;98634.98;87119;270;138074;-71
2024/01/05 02:39:34;;;;;;;51.20;29.90;;;;;;;1.46;100.00;98631.55;87222;269;22596;-70
2024/01/05 02:41:36;;;;;;;51.60;28.80;;;;;;;1.48;100.00;98632.92;87190;273;136984;-69
2024/01/05 02:43:37;;;;;;;61.20;32.00;;;;;;;1.50;100.00;98633.21;87291;277;22735;-71
2024/01/05 02:45:39;;;;;;;59.50;31.10;;;;;;;1.52;100.00;98636.52;87294;277;138484;-72
2024/01/05 02:47:41;;;;;;;53.70;27.10;;;;;;;1.53;100.00;98643.99;87294;266;22581;-70
2024/01/05 02:49:45;;;;;;;46.40;26.90;;;;;;;1.45;100.00;98645.38;87222;271;137435;-70
2024/01/05 02:51:47;;;;;;;48.40;26.70;;;;;;;1.44;100.00;98643.71;87326;270;25159;-72
2024/01/05 02:53:49;;;;;;;48.20;26.10;;;;;;;1.44;100.00;98646.92;87212;266;137096;-69
2024/01/05 02:55:51;;;;;;;44.80;26.30;;;;;;;1.41;100.00;98643.23;87424;270;22691;-70
2024/01/05 02:57:53;;;;;;;53.30;29.90;;;;;;;1.41;100.00;98644.27;87249;271;137033;-72
2024/01/05 02:59:55;;;;;;;54.50;29.50;;;;;;;1.40;100.00;98646.41;87367;270;25079;-70
2024/01/05 03:01:57;;;;;;;50.60;27.20;;;;;;;1.39;100.00;98643.40;87363;273;137649;-70
2024/01/05 03:04:01;;;;;;;47.80;27.30;;;;;;;1.37;100.00;98646.98;87323;269;25069;-71
2024/01/05 03:06:04;;;;;;;50.30;29.90;;;;;;;1.33;100.00;98643.45;87322;277;24232;-70
2024/01/05 03:08:06;;;;;;;52.10;27.50;;;;;;;1.34;100.00;98640.23;87171;270;137341;-69
2024/01/05 03:10:08;;;;;;;52.70;31.20;;;;;;;1.34;100.00;98644.30;87260;270;22973;-71
2024/01/05 03:12:10;;;;;;;52.10;29.40;;;;;;;1.32;100.00;98643.44;87236;270;138593;-68
2024/01/05 03:14:13;;;;;;;55.10;30.70;;;;;;;1.34;100.00;98645.08;87438;266;23530;-69
2024/01/05 03:16:15;;;;;;;52.00;31.30;;;;;;;1.40;100.00;98647.30;87217;272;136891;-69
2024/01/05 03:18:17;;;;;;;50.60;29.60;;;;;;;1.44;100.00;98646.56;87366;267;22563;-70
2024/01/05 03:20:20;;;;;;;58.00;32.00;;;;;;;1.46;100.00;98645.96;87244;278;138574;-70
2024/01/05 03:22:22;;;;;;;52.50;30.70;;;;;;;1.48;100.00;98654.31;87362;278;22571;-70
2024/01/05 03:24:24;;;;;;;52.90;31.60;;;;;;;1.49;100.00;98649.34;87265;274;138561;-69
2024/01/05 03:26:28;;;;;;;49.00;31.90;;;;;;;1.48;100.00;98657.57;87318;277;25216;-70
2024/01/05 03:28:33;;;;;;;48.30;27.70;;;;;;;1.47;100.00;98650.52;87254;266;136865;-71
2024/01/05 03:30:35;;;;;;;47.80;29.10;;;;;;;1.45;100.00;98652.20;87413;274;22571;-70
2024/01/05 03:32:37;;;;;;;44.70;27.30;;;;;;;1.44;100.00;98658.77;87246;273;136831;-68
2024/01/05 03:34:39;;;;;;;54.50;29.30;;;;;;;1.44;100.00;98655.85;87355;273;23025;-70
2024/01/05 03:36:41;;;;;;;49.30;28.10;;;;;;;1.46;100.00;98655.02;87262;269;137169;-70
2024/01/05 03:38:45;;;;;;;51.60;30.10;;;;;;;1.48;100.00;98658.48;87367;275;25323;-69
2024/01/05 03:40:47;;;;;;;51.80;28.40;;;;;;;1.48;100.00;98660.76;87269;271;137948;-67
2024/01/05 03:42:49;;;;;;;45.20;28.20;;;;;;;1.49;100.00;98665.95;87336;273;22525;-69
2024/01/05 03:44:51;;;;;;;47.60;29.20;;;;;;;1.49;100.00;98661.41;87254;278;137215;-66
2024/01/05 03:46:53;;;;;;;43.60;25.60;;;;;;;1.47;100.00;98661.70;87258;273;25089;-69
2024/01/05 03:50:08;;;;;;;52.30;29.50;;;;;;;1.26;100.00;98655.10;85055;303;602903;-67
2024/01/05 03:52:10;;;;;;;57.60;29.70;;;;;;;1.18;100.00;98655.88;86426;286;137305;-69
2024/01/05 03:54:12;;;;;;;56.80;28.70;;;;;;;1.09;100.00;98649.81;86278;291;22576;-68
2024/01/05 03:56:14;;;;;;;52.30;29.70;;;;;;;1.06;100.00;98650.30;86694;285;137776;-68
2024/01/05 03:58:15;;;;;;;59.40;31.90;;;;;;;1.08;100.00;98654.34;86768;273;25138;-68
2024/01/05 04:00:18;;;;;;;58.90;33.10;;;;;;;1.11;100.00;98649.96;86709;277;136401;-70
2024/01/05 04:02:19;;;;;;;63.60;34.20;;;;;;;1.13;100.00;98653.59;86602;286;22662;-68
2024/01/05 04:04:21;;;;;;;57.00;32.20;;;;;;;1.17;100.00;98661.76;86694;272;136552;-67
2024/01/05 04:06:25;;;;;;;53.70;29.70;;;;;;;1.19;100.00;98661.75;86890;280;24905;-71
2024/01/05 04:08:27;;;;;;;54.80;32.30;;;;;;;1.21;100.00;98669.91;86874;283;139128;-69
2024/01/05 04:10:29;;;;;;;52.80;31.30;;;;;;;1.25;100.00;98669.41;86952;275;22578;-70
2024/01/05 04:12:31;;;;;;;61.30;33.00;;;;;;;1.30;100.00;98671.45;86924;283;136750;-69
2024/01/05 04:14:35;;;;;;;59.20;29.80;;;;;;;1.34;100.00;98670.64;87014;275;22566;-70
2024/01/05 04:16:36;;;;;;;56.50;32.50;;;;;;;1.34;100.00;98672.79;86929;272;138093;-68
2024/01/05 04:18:39;;;;;;;55.10;32.60;;;;;;;1.32;100.00;98669.81;86694;274;22594;-69
2024/01/05 04:20:41;;;;;;;54.60;32.30;;;;;;;1.29;100.00;98669.20;86970;275;136654;-68
2024/01/05 04:22:43;;;;;;;64.40;32.90;;;;;;;1.23;100.00;98673.52;87148;279;22568;-71
2024/01/05 04:24:45;;;;;;;57.40;32.80;;;;;;;1.21;100.00;98674.29;86817;272;136755;-71
2024/01/05 04:26:48;;;;;;;58.60;34.40;;;;;;;1.23;100.00;98678.20;86796;275;24536;-70
2024/01/05 04:28:49;;;;;;;55.10;33.20;;;;;;;1.28;100.00;98677.55;86589;277;136716;-71
2024/01/05 04:30:51;;;;;;;59.50;34.10;;;;;;;1.31;100.00;98680.80;86751;275;25153;-70
2024/01/05 04:32:54;;;;;;;63.50;33.70;;;;;;;1.36;100.00;98680.49;86883;267;138016;-71
2024/01/05 04:34:55;;;;;;;64.10;36.60;;;;;;;1.40;100.00;98682.69;86933;275;26201;-70
2024/01/05 04:36:57;;;;;;;54.30;33.10;;;;;;;1.42;100.00;98681.02;86793;282;136943;-71
2024/01/05 04:38:59;;;;;;;64.70;38.70;;;;;;;1.40;100.00;98680.05;86860;268;25302;-70
2024/01/05 04:41:02;;;;;;;64.80;38.70;;;;;;;1.29;100.00;98680.77;86696;275;138155;-70
2024/01/05 04:43:04;;;;;;;68.50;40.70;;;;;;;1.28;100.00;98680.69;86807;268;24118;-67
2024/01/05 04:45:07;;;;;;;67.30;37.30;;;;;;;1.29;100.00;98684.35;86786;276;136541;-70
2024/01/05 04:47:09;;;;;;;59.80;35.80;;;;;;;1.31;100.00;98690.41;86880;275;22561;-69
2024/01/05 04:49:10;;;;;;;64.10;37.50;;;;;;;1.36;100.00;98693.61;86758;271;136794;-70
2024/01/05 04:51:12;;;;;;;66.00;37.10;;;;;;;1.39;100.00;98694.05;86870;272;26173;-71
2024/01/05 04:53:14;;;;;;;62.00;35.90;;;;;;;1.41;100.00;98692.33;86913;283;138136;-72
2024/01/05 04:55:16;;;;;;;65.10;38.00;;;;;;;1.46;100.00;98693.71;87039;275;23096;-72
2024/01/05 04:57:18;;;;;;;68.50;38.20;;;;;;;1.49;100.00;98696.77;86878;283;138084;-73
2024/01/05 04:59:20;;;;;;;65.40;35.50;;;;;;;1.51;100.00;98700.19;86983;283;22570;-67
2024/01/05 05:01:22;;;;;;;63.80;36.10;;;;;;;1.56;100.00;98706.11;89249;276;136534;-73
2024/01/05 05:03:26;;;;;;;67.20;36.90;;;;;;;1.61;100.00;98707.34;86889;284;25256;-73
2024/01/05 05:05:28;;;;;;;68.80;38.20;;;;;;;1.64;100.00;98712.06;86847;276;139035;-73
2024/01/05 05:07:30;;;;;;;58.10;37.20;;;;;;;1.66;100.00;98715.21;87094;272;24149;-74
2024/01/05 05:09:32;;;;;;;61.90;36.50;;;;;;;1.66;100.00;98715.86;86989;283;136616;-72
2024/01/05 05:11:34;;;;;;;65.20;37.80;;;;;;;1.67;100.00;98724.12;86969;284;22584;-70
2024/01/05 05:13:36;;;;;;;59.60;37.50;;;;;;;1.65;100.00;98727.91;86830;272;136654;-68
2024/01/05 05:15:38;;;;;;;64.00;34.70;;;;;;;1.64;100.00;98732.38;86961;276;22572;-70
2024/01/05 05:17:40;;;;;;;59.90;38.70;;;;;;;1.66;100.00;98729.36;86895;280;136822;-71
2024/01/05 05:19:42;;;;;;;62.00;35.80;;;;;;;1.67;100.00;98730.66;87070;276;22596;-73
2024/01/05 05:21:44;;;;;;;61.80;34.00;;;;;;;1.66;100.00;98728.61;86826;276;136709;-69
2024/01/05 05:23:46;;;;;;;61.00;36.30;;;;;;;1.67;100.00;98735.92;86971;283;22564;-70
2024/01/05 05:25:48;;;;;;;59.60;34.00;;;;;;;1.66;100.00;98735.83;86949;276;136918;-70
2024/01/05 05:27:50;;;;;;;61.60;35.70;;;;;;;1.67;100.00;98740.12;86898;284;22591;-69
2024/01/05 05:29:51;;;;;;;63.50;37.10;;;;;;;1.66;100.00;98739.17;86831;272;136545;-71
2024/01/05 05:31:53;;;;;;;62.50;35.50;;;;;;;1.66;100.00;98738.80;86969;272;22584;-71
2024/01/05 05:33:55;;;;;;;67.10;36.70;;;;;;;1.67;100.00;98742.13;86833;268;136542;-70
2024/01/05 05:35:57;;;;;;;61.40;36.20;;;;;;;1.66;100.00;98742.13;86952;276;22565;-70
2024/01/05 05:38:03;;;;;;;72.00;36.70;;;;;;;1.65;100.00;98740.12;86858;276;136415;-66
2024/01/05 05:40:05;;;;;;;66.70;38.70;;;;;;;1.64;100.00;98738.81;87005;276;138255;-71
2024/01/05 05:42:07;;;;;;;61.40;37.50;;;;;;;1.64;100.00;98742.52;87036;271;24233;-71
2024/01/05 05:44:09;;;;;;;72.80;39.10;;;;;;;1.65;100.00;98740.61;86912;275;136935;-69
2024/01/05 05:46:11;;;;;;;65.00;38.00;;;;;;;1.68;100.00;98744.96;86983;276;25218;-71
2024/01/05 05:48:15;;;;;;;64.10;39.10;;;;;;;1.72;100.00;98751.56;86882;276;136826;-71
2024/01/05 05:50:17;;;;;;;66.60;38.80;;;;;;;1.77;100.00;98753.17;86854;277;22549;-73
2024/01/05 05:52:19;;;;;;;68.70;41.00;;;;;;;1.81;100.00;98755.76;86848;272;136639;-69
2024/01/05 05:54:21;;;;;;;62.30;36.60;;;;;;;1.82;100.00;98767.14;86961;276;25122;-70
2024/01/05 05:56:25;;;;;;;66.00;40.10;;;;;;;1.81;100.00;98769.32;86955;283;136858;-71
2024/01/05 05:58:27;;;;;;;67.30;37.50;;;;;;;1.79;100.00;98771.20;86988;283;25137;-70
2024/01/05 06:00:31;;;;;;;68.30;40.10;;;;;;;1.76;100.00;98774.67;86832;276;136836;-71
2024/01/05 06:02:33;;;;;;;70.50;41.90;;;;;;;1.74;100.00;98776.60;86865;273;22563;-71
2024/01/05 06:04:34;;;;;;;67.60;41.70;;;;;;;1.74;100.00;98774.11;86863;275;138154;-68
2024/01/05 06:06:36;;;;;;;63.30;39.70;;;;;;;1.77;100.00;98774.00;86595;275;22570;-70
2024/01/05 06:08:38;;;;;;;68.80;41.20;;;;;;;1.82;100.00;98778.02;86597;275;136298;-69
2024/01/05 06:10:40;;;;;;;68.40;42.90;;;;;;;1.85;100.00;98781.33;86756;271;22567;-68
2024/01/05 06:12:42;;;;;;;66.30;37.30;;;;;;;1.89;100.00;98780.36;86643;271;137513;-71
2024/01/05 06:14:44;;;;;;;71.10;40.40;;;;;;;1.91;100.00;98781.02;86725;283;25294;-67
2024/01/05 06:16:47;;;;;;;73.30;43.20;;;;;;;1.95;100.00;98778.69;86635;283;136837;-70
2024/01/05 06:18:49;;;;;;;78.20;40.80;;;;;;;2.00;100.00;98782.11;86986;281;22688;-69
2024/01/05 06:20:51;;;;;;;68.50;40.60;;;;;;;2.06;100.00;98783.40;86755;278;137941;-70
2024/01/05 06:22:53;;;;;;;67.50;40.50;;;;;;;2.09;100.00;98784.77;86801;282;25285;-65
2024/01/05 06:24:57;;;;;;;70.60;41.70;;;;;;;2.13;100.00;98789.26;86866;274;136559;-67
2024/01/05 06:26:58;;;;;;;69.10;40.90;;;;;;;2.13;100.00;98790.59;86831;275;24113;-71
2024/01/05 06:29:01;;;;;;;69.20;41.30;;;;;;;2.12;100.00;98791.65;86788;278;137468;-71
2024/01/05 06:31:06;;;;;;;66.60;43.40;;;;;;;2.10;100.00;98792.39;86830;276;22567;-71
2024/01/05 06:33:08;;;;;;;69.50;42.00;;;;;;;2.09;100.00;98794.98;86796;271;137401;-69
2024/01/05 06:35:12;;;;;;;65.60;40.40;;;;;;;2.11;100.00;98793.90;86912;281;25229;-67
2024/01/05 06:37:14;;;;;;;65.30;36.80;;;;;;;2.15;100.00;98798.17;86899;278;138250;-72
2024/01/05 06:39:16;;;;;;;56.80;35.90;;;;;;;2.17;100.00;98798.16;86838;274;26664;-67
2024/01/05 06:41:18;;;;;;;54.50;35.80;;;;;;;2.16;100.00;98802.23;86675;274;137034;-69
2024/01/05 06:43:21;;;;;;;59.30;35.20;;;;;;;2.17;100.00;98803.89;86758;283;24181;-68
2024/01/05 06:45:24;;;;;;;58.00;36.50;;;;;;;2.18;100.00;98806.31;86793;274;138253;-66
2024/01/05 06:47:27;;;;;;;52.70;32.50;;;;;;;2.19;100.00;98812.13;86800;270;22574;-67
2024/01/05 06:49:29;;;;;;;52.50;31.80;;;;;;;2.20;100.00;98817.48;86512;276;136917;-69
2024/01/05 06:51:40;;;;;;;42.10;27.00;;;;;;;2.21;100.00;98817.95;86795;270;25252;-68
2024/01/05 06:53:43;;;;;;;39.10;27.00;;;;;;;2.21;100.00;98823.09;86611;270;136590;-67
2024/01/05 06:55:45;;;;;;;39.60;23.10;;;;;;;2.24;100.00;98828.52;86621;275;25153;-67
2024/01/05 06:57:48;;;;;;;27.30;18.10;;;;;;;2.29;100.00;98832.65;86710;274;138310;-64
2024/01/05 06:59:49;;;;;;;27.30;18.30;;;;;;;2.36;100.00;98836.63;86763;279;24072;-62
2024/01/05 07:01:51;;;;;;;25.80;18.40;;;;;;;2.43;100.00;98840.08;86714;274;136984;-69
2024/01/05 07:03:53;;;;;;;28.10;18.00;;;;;;;2.48;100.00;98847.02;86844;270;25153;-68
2024/01/05 07:05:55;;;;;;;26.70;16.90;;;;;;;2.57;100.00;98852.40;86726;283;140521;-70
2024/01/05 07:07:57;;;;;;;22.60;16.70;;;;;;;2.67;100.00;98855.30;86807;274;25150;-67
2024/01/05 07:09:59;;;;;;;21.60;14.60;;;;;;;2.77;100.00;98858.36;86732;271;135743;-69
2024/01/05 07:12:01;;;;;;;19.60;12.60;;;;;;;2.88;100.00;98860.06;86644;276;22789;-66
2024/01/05 07:14:02;;;;;;;11.90;9.40;;;;;;;2.98;100.00;98859.59;86585;279;136446;-71
2024/01/05 07:16:14;;;;;;;13.20;9.40;;;;;;;3.10;100.00;98868.58;86705;282;136933;-65
2024/01/05 07:18:16;;;;;;;11.90;10.30;;;;;;;3.20;100.00;98874.55;86854;266;22602;-68
2024/01/05 07:20:18;;;;;;;9.90;7.90;;;;;;;3.26;100.00;98880.16;86689;274;137324;-67
2024/01/05 07:22:20;;;;;;;9.90;6.30;;;;;;;3.35;100.00;98879.70;86778;280;22570;-67
2024/01/05 07:24:23;;;;;;;7.20;5.10;;;;;;;3.42;100.00;98879.88;86883;279;137105;-69
2024/01/05 07:26:24;;;;;;;8.50;4.00;;;;;;;3.48;100.00;98886.95;86770;275;22557;-71
2024/01/05 07:28:26;;;;;;;4.50;3.00;;;;;;;3.51;100.00;98896.91;86525;277;137585;-70
2024/01/05 07:30:28;;;;;;;5.00;4.30;;;;;;;3.54;100.00;98906.46;86700;283;22588;-70
2024/01/05 07:32:29;;;;;;;3.80;3.30;;;;;;;3.54;100.00;98908.56;86719;274;136385;-67
2024/01/05 07:34:31;;;;;;;9.00;5.40;;;;;;;3.52;100.00;98919.85;86790;281;22559;-71
2024/01/05 07:36:33;;;;;;;4.80;3.20;;;;;;;3.52;100.00;98925.41;86852;274;136802;-68
2024/01/05 07:38:35;;;;;;;4.80;4.20;;;;;;;3.54;100.00;98928.36;86934;281;25245;-71
2024/01/05 07:40:38;;;;;;;5.10;3.20;;;;;;;3.49;100.00;98934.60;86835;281;136549;-71
2024/01/05 07:42:40;;;;;;;3.70;3.30;;;;;;;3.44;100.00;98945.48;86841;281;22803;-67
2024/01/05 07:44:42;;;;;;;4.20;3.50;;;;;;;3.38;100.00;98953.90;86595;274;137722;-68
2024/01/05 07:46:45;;;;;;;7.10;4.50;;;;;;;3.31;100.00;98954.59;86865;280;22847;-70
2024/01/05 07:48:47;;;;;;;4.90;4.00;;;;;;;3.23;100.00;98956.35;87371;274;138107;-69
2024/01/05 07:50:49;;;;;;;5.30;4.10;;;;;;;3.22;100.00;98962.28;86912;274;22684;-70
2024/01/05 07:52:51;;;;;;;6.20;4.20;;;;;;;3.25;100.00;98969.43;86605;271;136547;-66
2024/01/05 07:54:53;;;;;;;7.00;3.80;;;;;;;3.27;100.00;98971.16;86595;271;25221;-70
2024/01/05 07:56:55;;;;;;;7.00;4.60;;;;;;;3.25;100.00;98974.58;86735;270;136841;-68
2024/01/05 07:58:56;;;;;;;5.60;4.10;;;;;;;3.21;100.00;98978.45;86680;274;22685;-68
2024/01/05 08:00:58;;;;;;;5.10;4.00;;;;;;;3.20;100.00;98978.23;86747;270;136841;-67
2024/01/05 08:03:03;;;;;;;6.50;4.10;;;;;;;3.22;100.00;98981.34;86918;274;22641;-65
2024/01/05 08:05:07;;;;;;;6.20;3.70;;;;;;;3.24;100.00;98990.64;89526;277;137893;-68
2024/01/05 08:07:09;;;;;;;5.00;3.50;;;;;;;3.25;100.00;98993.46;89729;270;22240;-64
2024/01/05 08:09:10;;;;;;;5.70;4.20;;;;;;;3.26;100.00;98998.76;89036;277;138130;-68
2024/01/05 08:11:13;;;;;;;5.80;4.80;;;;;;;3.29;100.00;99004.07;86789;282;22642;-70
2024/01/05 08:13:15;;;;;;;4.40;3.30;;;;;;;3.34;100.00;99007.56;86867;277;136555;-66
2024/01/05 08:15:17;;;;;;;3.90;3.50;;;;;;;3.36;100.00;99006.46;87008;270;24014;-68
2024/01/05 08:17:20;;;;;;;4.50;4.00;;;;;;;3.34;100.00;99013.46;86760;273;136619;-68
2024/01/05 08:19:22;;;;;;;2.90;2.70;;;;;;;3.30;100.00;99017.16;87111;273;25172;-71
2024/01/05 08:21:24;;;;;;;3.20;2.90;;;;;;;3.28;100.00;99016.38;86918;270;136683;-72
2024/01/05 08:23:26;;;;;;;3.40;3.10;;;;;;;3.25;100.00;99024.38;87054;281;25227;-68
2024/01/05 08:25:27;;;;;;;3.10;2.60;;;;;;;3.22;100.00;99027.36;86867;274;136787;-69
2024/01/05 08:27:30;;;;;;;2.90;2.60;;;;;;;3.23;100.00;99034.13;86896;281;23233;-66
2024/01/05 08:29:34;;;;;;;4.80;3.50;;;;;;;3.25;100.00;99038.23;86741;274;136686;-68
2024/01/05 08:31:36;;;;;;;3.90;3.20;;;;;;;3.27;100.00;99047.38;86903;282;25272;-70
2024/01/05 08:33:40;;;;;;;2.70;2.50;;;;;;;3.29;100.00;99046.77;86873;281;136726;-69
2024/01/05 08:35:42;;;;;;;7.60;2.90;;;;;;;3.28;100.00;99050.52;86892;281;22597;-68
2024/01/05 08:37:44;;;;;;;4.20;2.60;;;;;;;3.23;100.00;99058.09;86764;277;137728;-68
2024/01/05 08:39:46;;;;;;;2.20;2.00;;;;;;;3.16;100.00;99056.81;86741;277;23517;-66
2024/01/05 08:41:48;;;;;;;1.90;1.80;;;;;;;3.10;100.00;99062.08;86719;274;138499;-59
2024/01/05 08:43:51;;;;;;;2.40;2.20;;;;;;;3.09;100.00;99066.96;86901;274;25127;-64
2024/01/05 08:45:54;;;;;;;2.20;2.00;;;;;;;3.08;100.00;99067.71;86844;281;137790;-60
2024/01/05 08:47:56;;;;;;;2.70;2.50;;;;;;;3.07;100.00;99072.54;89125;267;22551;-61
2024/01/05 08:49:58;;;;;;;3.00;2.60;;;;;;;3.09;100.00;99076.00;87039;280;136936;-63
2024/01/05 08:52:00;;;;;;;3.50;1.80;;;;;;;3.12;100.00;99075.48;86780;274;24033;-63
2024/01/05 08:54:03;;;;;;;2.70;2.10;;;;;;;3.11;100.00;99078.39;86834;270;136111;-65
2024/01/05 08:56:07;;;;;;;4.50;2.70;;;;;;;3.08;100.00;99083.14;86938;274;136848;-62
2024/01/05 08:58:10;;;;;;;2.90;2.60;;;;;;;3.06;100.00;99083.50;86900;275;22568;-64
2024/01/05 09:00:12;;;;;;;3.10;2.30;;;;;;;3.08;100.00;99088.80;86855;279;137144;-64
2024/01/05 09:02:15;;;;;;;5.40;3.10;;;;;;;3.09;100.00;99096.90;86804;274;22540;-63
2024/01/05 09:04:17;;;;;;;2.90;2.60;;;;;;;3.10;100.00;99098.58;86825;273;136851;-62
2024/01/05 09:06:19;;;;;;;2.70;2.50;;;;;;;3.09;100.00;99101.64;86949;281;25887;-67
2024/01/05 09:08:21;;;;;;;3.80;3.40;;;;;;;3.12;100.00;99105.87;86966;274;136835;-70
2024/01/05 09:10:23;;;;;;;2.70;2.50;;;;;;;3.15;100.00;99107.11;87032;269;22635;-68
2024/01/05 09:12:25;;;;;;;2.60;2.40;;;;;;;3.18;100.00;99109.77;86921;269;136733;-69
2024/01/05 09:14:27;;;;;;;3.30;3.00;;;;;;;3.21;100.00;99117.20;87010;281;25102;-71
2024/01/05 09:16:29;;;;;;;3.90;3.40;;;;;;;3.23;100.00;99121.69;86876;274;136869;-76
2024/01/05 09:18:33;;;;;;;3.70;2.60;;;;;;;3.22;100.00;99117.42;87093;269;22572;-68
2024/01/05 09:20:36;;;;;;;;;;;;;;;3.18;100.00;99121.22;87001;277;136436;-68
2024/01/05 09:22:38;;;;;;;3.50;2.70;;;;;;;3.16;100.00;99117.44;86967;274;22570;-68
2024/01/05 09:24:40;;;;;;;2.10;2.00;;;;;;;3.18;100.00;99118.45;86951;274;138023;-70
2024/01/05 09:26:42;;;;;;;2.50;2.30;;;;;;;3.17;100.00;99124.44;86898;269;22536;-71
2024/01/05 09:28:44;;;;;;;2.70;2.10;;;;;;;3.15;100.00;99127.48;86892;274;136546;-67